Huvudsida
METAR-TAF:

METAR-TAF

Flygplatser :

Sandnessjøens flygplats. Stokka

Sandnessjøen, Norge

latitud: 65-58N, longitud: 012-28E, höjd: 1 m

Aktuellt väderrapport

Denna rapport gjordes för 8 timmar och 19 minuter sedan, klockan 19:50 UTC
Vind 6 kt från nordost
Temperatur 1°C
Fuktighet 75%
Tryck 987 hPa
Sikt 10 km eller mer
Få moln på en höjd av 1500 ft, Cumulonimbus.
Få moln på en höjd av 2500 ft
Spridda moln på en höjd av 5000 ft
skurar i närheten

METAR: ENST 181950Z 04006KT 9999 VCSH FEW015CB FEW025 SCT050 01/M03 Q0987 RMK WIND 300FT 04008KT

Tid: 05:09 (04:09 UTC)


TAF: saknas

Aktuella väderrapporter och prognoser från 4000 flygplatser (METAR- och TAF-rapporter).

De tillgängliga stationerna syns som gula och röda prickar på kartan.

För musen över prickarna för att se namnen på stationerna.

Klicka sedan för att få väderrapporter och prognoser.

För att ändra kartan: Klicka på de gröna knapparna med ett svart kors på för att zooma in; den gröna knappen med ett streck på för att zooma ut; eller på de gröna pilarna för angränsande kartor.


METAR-TAF: